sensor_id;sensor_type;location;lat;lon;timestamp;temperature;humidity
5429;DHT22;2737;52.386;9.980;2023-12-20T00:01:17;6.80;99.90
5429;DHT22;2737;52.386;9.980;2023-12-20T00:03:44;6.80;99.90
5429;DHT22;2737;52.386;9.980;2023-12-20T00:06:11;6.80;99.90
5429;DHT22;2737;52.386;9.980;2023-12-20T00:08:38;6.70;99.90
5429;DHT22;2737;52.386;9.980;2023-12-20T00:11:05;6.70;99.90
5429;DHT22;2737;52.386;9.980;2023-12-20T00:13:32;6.60;99.90
5429;DHT22;2737;52.386;9.980;2023-12-20T00:16:01;6.60;99.90
5429;DHT22;2737;52.386;9.980;2023-12-20T00:18:28;6.60;99.90
5429;DHT22;2737;52.386;9.980;2023-12-20T00:20:55;6.50;99.90
5429;DHT22;2737;52.386;9.980;2023-12-20T00:23:22;6.60;99.90
5429;DHT22;2737;52.386;9.980;2023-12-20T00:25:50;6.50;99.90
5429;DHT22;2737;52.386;9.980;2023-12-20T00:28:17;6.50;99.90
5429;DHT22;2737;52.386;9.980;2023-12-20T00:30:44;6.50;99.90
5429;DHT22;2737;52.386;9.980;2023-12-20T00:33:12;6.50;99.90
5429;DHT22;2737;52.386;9.980;2023-12-20T00:35:39;6.40;99.90
5429;DHT22;2737;52.386;9.980;2023-12-20T00:38:06;6.40;99.90
5429;DHT22;2737;52.386;9.980;2023-12-20T00:40:34;6.40;99.90
5429;DHT22;2737;52.386;9.980;2023-12-20T00:43:01;6.30;99.90
5429;DHT22;2737;52.386;9.980;2023-12-20T00:45:28;6.30;99.90
5429;DHT22;2737;52.386;9.980;2023-12-20T00:47:55;6.30;99.90
5429;DHT22;2737;52.386;9.980;2023-12-20T00:50:24;6.20;99.90
5429;DHT22;2737;52.386;9.980;2023-12-20T00:52:51;6.20;99.90
5429;DHT22;2737;52.386;9.980;2023-12-20T00:55:20;6.20;99.90
5429;DHT22;2737;52.386;9.980;2023-12-20T00:57:47;6.20;99.90
5429;DHT22;2737;52.386;9.980;2023-12-20T01:00:14;6.10;99.90
5429;DHT22;2737;52.386;9.980;2023-12-20T01:02:41;6.10;99.90
5429;DHT22;2737;52.386;9.980;2023-12-20T01:05:08;6.10;99.90
5429;DHT22;2737;52.386;9.980;2023-12-20T01:07:37;6.00;99.90
5429;DHT22;2737;52.386;9.980;2023-12-20T01:10:04;6.00;99.90
5429;DHT22;2737;52.386;9.980;2023-12-20T01:12:31;6.00;99.90
5429;DHT22;2737;52.386;9.980;2023-12-20T01:14:58;6.00;99.90
5429;DHT22;2737;52.386;9.980;2023-12-20T01:17:25;6.00;99.90
5429;DHT22;2737;52.386;9.980;2023-12-20T01:19:52;6.00;99.90
5429;DHT22;2737;52.386;9.980;2023-12-20T01:22:19;5.90;99.90
5429;DHT22;2737;52.386;9.980;2023-12-20T01:24:48;5.90;99.90
5429;DHT22;2737;52.386;9.980;2023-12-20T01:27:14;5.90;99.90
5429;DHT22;2737;52.386;9.980;2023-12-20T01:29:41;5.90;99.90
5429;DHT22;2737;52.386;9.980;2023-12-20T01:32:08;5.90;99.90
5429;DHT22;2737;52.386;9.980;2023-12-20T01:34:35;5.90;99.90
5429;DHT22;2737;52.386;9.980;2023-12-20T01:37:03;5.90;99.90
5429;DHT22;2737;52.386;9.980;2023-12-20T01:39:30;5.90;99.90
5429;DHT22;2737;52.386;9.980;2023-12-20T01:41:58;5.90;99.90
5429;DHT22;2737;52.386;9.980;2023-12-20T01:44:25;5.90;99.90
5429;DHT22;2737;52.386;9.980;2023-12-20T01:46:52;5.80;99.90
5429;DHT22;2737;52.386;9.980;2023-12-20T01:49:20;5.90;99.90
5429;DHT22;2737;52.386;9.980;2023-12-20T01:51:47;5.90;99.90
5429;DHT22;2737;52.386;9.980;2023-12-20T01:54:15;5.90;99.90
5429;DHT22;2737;52.386;9.980;2023-12-20T01:56:43;5.90;99.90
5429;DHT22;2737;52.386;9.980;2023-12-20T01:59:11;5.80;99.90
5429;DHT22;2737;52.386;9.980;2023-12-20T02:01:39;5.80;99.90
5429;DHT22;2737;52.386;9.980;2023-12-20T02:04:06;5.80;99.90
5429;DHT22;2737;52.386;9.980;2023-12-20T02:06:34;5.70;99.90
5429;DHT22;2737;52.386;9.980;2023-12-20T02:09:01;5.70;99.90
5429;DHT22;2737;52.386;9.980;2023-12-20T02:11:28;5.60;99.90
5429;DHT22;2737;52.386;9.980;2023-12-20T02:13:55;5.60;99.90
5429;DHT22;2737;52.386;9.980;2023-12-20T02:16:24;5.60;99.90
5429;DHT22;2737;52.386;9.980;2023-12-20T02:18:51;5.60;99.90
5429;DHT22;2737;52.386;9.980;2023-12-20T02:21:18;5.50;99.90
5429;DHT22;2737;52.386;9.980;2023-12-20T02:23:48;5.60;99.90
5429;DHT22;2737;52.386;9.980;2023-12-20T02:26:15;5.50;99.90
5429;DHT22;2737;52.386;9.980;2023-12-20T02:28:41;5.50;99.90
5429;DHT22;2737;52.386;9.980;2023-12-20T02:31:08;5.50;99.90
5429;DHT22;2737;52.386;9.980;2023-12-20T02:33:35;5.50;99.90
5429;DHT22;2737;52.386;9.980;2023-12-20T02:36:02;5.50;99.90
5429;DHT22;2737;52.386;9.980;2023-12-20T02:38:29;5.50;99.90
5429;DHT22;2737;52.386;9.980;2023-12-20T02:40:58;5.50;99.90
5429;DHT22;2737;52.386;9.980;2023-12-20T02:43:25;5.40;99.90
5429;DHT22;2737;52.386;9.980;2023-12-20T02:45:52;5.50;99.90
5429;DHT22;2737;52.386;9.980;2023-12-20T02:48:19;5.40;99.90
5429;DHT22;2737;52.386;9.980;2023-12-20T02:50:46;5.50;99.90
5429;DHT22;2737;52.386;9.980;2023-12-20T02:53:14;5.50;99.90
5429;DHT22;2737;52.386;9.980;2023-12-20T02:55:42;5.50;99.90
5429;DHT22;2737;52.386;9.980;2023-12-20T02:58:10;5.50;99.90
5429;DHT22;2737;52.386;9.980;2023-12-20T03:00:37;5.40;99.90
5429;DHT22;2737;52.386;9.980;2023-12-20T03:03:04;5.40;99.90
5429;DHT22;2737;52.386;9.980;2023-12-20T03:05:31;5.40;99.90
5429;DHT22;2737;52.386;9.980;2023-12-20T03:07:59;5.40;99.90
5429;DHT22;2737;52.386;9.980;2023-12-20T03:10:26;5.40;99.90
5429;DHT22;2737;52.386;9.980;2023-12-20T03:12:53;5.30;99.90
5429;DHT22;2737;52.386;9.980;2023-12-20T03:15:21;5.30;99.90
5429;DHT22;2737;52.386;9.980;2023-12-20T03:17:48;5.30;99.90
5429;DHT22;2737;52.386;9.980;2023-12-20T03:20:15;5.20;99.90
5429;DHT22;2737;52.386;9.980;2023-12-20T03:22:42;5.20;99.90
5429;DHT22;2737;52.386;9.980;2023-12-20T03:25:09;5.20;99.90
5429;DHT22;2737;52.386;9.980;2023-12-20T03:27:37;5.20;99.90
5429;DHT22;2737;52.386;9.980;2023-12-20T03:30:06;5.20;99.90
5429;DHT22;2737;52.386;9.980;2023-12-20T03:32:34;5.20;99.90
5429;DHT22;2737;52.386;9.980;2023-12-20T03:35:01;5.20;99.90
5429;DHT22;2737;52.386;9.980;2023-12-20T03:37:28;5.10;99.90
5429;DHT22;2737;52.386;9.980;2023-12-20T03:39:55;5.00;99.90
5429;DHT22;2737;52.386;9.980;2023-12-20T03:42:22;5.10;99.90
5429;DHT22;2737;52.386;9.980;2023-12-20T03:44:49;5.00;99.90
5429;DHT22;2737;52.386;9.980;2023-12-20T03:47:16;5.10;99.90
5429;DHT22;2737;52.386;9.980;2023-12-20T03:49:45;5.00;99.90
5429;DHT22;2737;52.386;9.980;2023-12-20T03:52:12;5.00;99.90
5429;DHT22;2737;52.386;9.980;2023-12-20T03:54:39;5.00;99.90
5429;DHT22;2737;52.386;9.980;2023-12-20T03:57:08;5.00;99.90
5429;DHT22;2737;52.386;9.980;2023-12-20T03:59:36;5.00;99.90
5429;DHT22;2737;52.386;9.980;2023-12-20T04:02:04;5.00;99.90
5429;DHT22;2737;52.386;9.980;2023-12-20T04:04:31;4.90;99.90
5429;DHT22;2737;52.386;9.980;2023-12-20T04:06:59;4.90;99.90
5429;DHT22;2737;52.386;9.980;2023-12-20T04:09:26;4.90;99.90
5429;DHT22;2737;52.386;9.980;2023-12-20T04:11:53;5.00;99.90
5429;DHT22;2737;52.386;9.980;2023-12-20T04:14:20;4.90;99.90
5429;DHT22;2737;52.386;9.980;2023-12-20T04:16:47;5.00;99.90
5429;DHT22;2737;52.386;9.980;2023-12-20T04:19:14;5.00;99.90
5429;DHT22;2737;52.386;9.980;2023-12-20T04:21:41;5.00;99.90
5429;DHT22;2737;52.386;9.980;2023-12-20T04:24:10;5.00;99.90
5429;DHT22;2737;52.386;9.980;2023-12-20T04:26:37;5.10;99.90
5429;DHT22;2737;52.386;9.980;2023-12-20T04:29:04;5.10;99.90
5429;DHT22;2737;52.386;9.980;2023-12-20T04:31:31;5.10;99.90
5429;DHT22;2737;52.386;9.980;2023-12-20T04:33:58;5.10;99.90
5429;DHT22;2737;52.386;9.980;2023-12-20T04:36:25;5.10;99.90
5429;DHT22;2737;52.386;9.980;2023-12-20T04:38:52;5.10;99.90
5429;DHT22;2737;52.386;9.980;2023-12-20T04:41:21;5.20;99.90
5429;DHT22;2737;52.386;9.980;2023-12-20T04:43:48;5.20;99.90
5429;DHT22;2737;52.386;9.980;2023-12-20T04:46:15;5.20;99.90
5429;DHT22;2737;52.386;9.980;2023-12-20T04:48:42;5.20;99.90
5429;DHT22;2737;52.386;9.980;2023-12-20T04:51:09;5.30;99.90
5429;DHT22;2737;52.386;9.980;2023-12-20T04:53:36;5.30;99.90
5429;DHT22;2737;52.386;9.980;2023-12-20T04:56:03;5.40;99.90
5429;DHT22;2737;52.386;9.980;2023-12-20T04:58:32;5.40;99.90
5429;DHT22;2737;52.386;9.980;2023-12-20T05:00:59;5.40;99.90
5429;DHT22;2737;52.386;9.980;2023-12-20T05:03:26;5.40;99.90
5429;DHT22;2737;52.386;9.980;2023-12-20T05:05:53;5.40;99.90
5429;DHT22;2737;52.386;9.980;2023-12-20T05:08:20;5.50;99.90
5429;DHT22;2737;52.386;9.980;2023-12-20T05:10:47;5.50;99.90
5429;DHT22;2737;52.386;9.980;2023-12-20T05:13:14;5.50;99.90
5429;DHT22;2737;52.386;9.980;2023-12-20T05:15:43;5.50;99.90
5429;DHT22;2737;52.386;9.980;2023-12-20T05:18:10;5.50;99.90
5429;DHT22;2737;52.386;9.980;2023-12-20T05:20:37;5.50;99.90
5429;DHT22;2737;52.386;9.980;2023-12-20T05:23:04;5.50;99.90
5429;DHT22;2737;52.386;9.980;2023-12-20T05:25:31;5.60;99.90
5429;DHT22;2737;52.386;9.980;2023-12-20T05:27:58;5.60;99.90
5429;DHT22;2737;52.386;9.980;2023-12-20T05:30:25;5.60;99.90
5429;DHT22;2737;52.386;9.980;2023-12-20T05:32:53;5.60;99.90
5429;DHT22;2737;52.386;9.980;2023-12-20T05:35:20;5.70;99.90
5429;DHT22;2737;52.386;9.980;2023-12-20T05:37:49;5.70;99.90
5429;DHT22;2737;52.386;9.980;2023-12-20T05:40:16;5.70;99.90
5429;DHT22;2737;52.386;9.980;2023-12-20T05:42:43;5.80;99.90
5429;DHT22;2737;52.386;9.980;2023-12-20T05:45:10;5.80;99.90
5429;DHT22;2737;52.386;9.980;2023-12-20T05:47:37;5.80;99.90
5429;DHT22;2737;52.386;9.980;2023-12-20T05:50:06;5.70;99.90
5429;DHT22;2737;52.386;9.980;2023-12-20T05:52:34;5.70;99.90
5429;DHT22;2737;52.386;9.980;2023-12-20T05:55:01;5.70;99.90
5429;DHT22;2737;52.386;9.980;2023-12-20T05:57:28;5.80;99.90
5429;DHT22;2737;52.386;9.980;2023-12-20T05:59:55;5.80;99.90
5429;DHT22;2737;52.386;9.980;2023-12-20T06:02:22;5.70;99.90
5429;DHT22;2737;52.386;9.980;2023-12-20T06:04:49;5.80;99.90
5429;DHT22;2737;52.386;9.980;2023-12-20T06:07:18;5.80;99.90
5429;DHT22;2737;52.386;9.980;2023-12-20T06:09:45;5.80;99.90
5429;DHT22;2737;52.386;9.980;2023-12-20T06:12:12;5.80;99.90
5429;DHT22;2737;52.386;9.980;2023-12-20T06:14:39;5.80;99.90
5429;DHT22;2737;52.386;9.980;2023-12-20T06:17:06;5.80;99.90
5429;DHT22;2737;52.386;9.980;2023-12-20T06:19:33;5.80;99.90
5429;DHT22;2737;52.386;9.980;2023-12-20T06:22:00;5.80;99.90
5429;DHT22;2737;52.386;9.980;2023-12-20T06:24:28;5.80;99.90
5429;DHT22;2737;52.386;9.980;2023-12-20T06:26:55;5.80;99.90
5429;DHT22;2737;52.386;9.980;2023-12-20T06:29:23;5.80;99.90
5429;DHT22;2737;52.386;9.980;2023-12-20T06:31:50;5.90;99.90
5429;DHT22;2737;52.386;9.980;2023-12-20T06:34:17;5.80;99.90
5429;DHT22;2737;52.386;9.980;2023-12-20T06:36:44;5.80;99.90
5429;DHT22;2737;52.386;9.980;2023-12-20T06:39:11;5.80;99.90
5429;DHT22;2737;52.386;9.980;2023-12-20T06:41:41;5.80;99.90
5429;DHT22;2737;52.386;9.980;2023-12-20T06:44:08;5.80;99.90
5429;DHT22;2737;52.386;9.980;2023-12-20T06:46:35;5.80;99.90
5429;DHT22;2737;52.386;9.980;2023-12-20T06:49:02;5.80;99.90
5429;DHT22;2737;52.386;9.980;2023-12-20T06:51:29;5.90;99.90
5429;DHT22;2737;52.386;9.980;2023-12-20T06:53:56;5.90;99.90
5429;DHT22;2737;52.386;9.980;2023-12-20T06:56:23;5.90;99.90
5429;DHT22;2737;52.386;9.980;2023-12-20T06:58:52;5.90;99.90
5429;DHT22;2737;52.386;9.980;2023-12-20T07:01:19;5.80;99.90
5429;DHT22;2737;52.386;9.980;2023-12-20T07:03:46;5.80;99.90
5429;DHT22;2737;52.386;9.980;2023-12-20T07:06:13;5.80;99.90
5429;DHT22;2737;52.386;9.980;2023-12-20T07:08:42;5.80;99.90
5429;DHT22;2737;52.386;9.980;2023-12-20T07:11:09;5.80;99.90
5429;DHT22;2737;52.386;9.980;2023-12-20T07:13:36;5.80;99.90
5429;DHT22;2737;52.386;9.980;2023-12-20T07:16:04;5.80;99.90
5429;DHT22;2737;52.386;9.980;2023-12-20T07:18:31;5.80;99.90
5429;DHT22;2737;52.386;9.980;2023-12-20T07:20:58;5.80;99.90
5429;DHT22;2737;52.386;9.980;2023-12-20T07:23:25;5.80;99.90
5429;DHT22;2737;52.386;9.980;2023-12-20T07:25:52;5.70;99.90
5429;DHT22;2737;52.386;9.980;2023-12-20T07:28:19;5.70;99.90
5429;DHT22;2737;52.386;9.980;2023-12-20T07:30:46;5.60;99.90
5429;DHT22;2737;52.386;9.980;2023-12-20T07:33:15;5.60;99.90
5429;DHT22;2737;52.386;9.980;2023-12-20T07:35:42;5.60;99.90
5429;DHT22;2737;52.386;9.980;2023-12-20T07:38:10;5.60;99.90
5429;DHT22;2737;52.386;9.980;2023-12-20T07:40:38;5.60;99.90
5429;DHT22;2737;52.386;9.980;2023-12-20T07:43:05;5.70;99.90
5429;DHT22;2737;52.386;9.980;2023-12-20T07:45:32;5.60;99.90
5429;DHT22;2737;52.386;9.980;2023-12-20T07:47:59;5.60;99.90
5429;DHT22;2737;52.386;9.980;2023-12-20T07:50:28;5.60;99.90
5429;DHT22;2737;52.386;9.980;2023-12-20T07:52:54;5.70;99.90
5429;DHT22;2737;52.386;9.980;2023-12-20T07:55:21;5.70;99.90
5429;DHT22;2737;52.386;9.980;2023-12-20T07:57:48;5.80;99.90
5429;DHT22;2737;52.386;9.980;2023-12-20T08:00:16;5.70;99.90
5429;DHT22;2737;52.386;9.980;2023-12-20T08:02:43;5.80;99.90
5429;DHT22;2737;52.386;9.980;2023-12-20T08:05:10;5.70;99.90
5429;DHT22;2737;52.386;9.980;2023-12-20T08:07:39;5.70;99.90
5429;DHT22;2737;52.386;9.980;2023-12-20T08:10:06;5.70;99.90
5429;DHT22;2737;52.386;9.980;2023-12-20T08:12:34;5.60;99.90
5429;DHT22;2737;52.386;9.980;2023-12-20T08:15:01;5.50;99.90
5429;DHT22;2737;52.386;9.980;2023-12-20T08:17:29;5.50;99.90
5429;DHT22;2737;52.386;9.980;2023-12-20T08:19:56;5.50;99.90
5429;DHT22;2737;52.386;9.980;2023-12-20T08:22:24;5.50;99.90
5429;DHT22;2737;52.386;9.980;2023-12-20T08:24:52;5.50;99.90
5429;DHT22;2737;52.386;9.980;2023-12-20T08:27:19;5.60;99.90
5429;DHT22;2737;52.386;9.980;2023-12-20T08:29:46;5.60;99.90
5429;DHT22;2737;52.386;9.980;2023-12-20T08:32:15;5.60;99.90
5429;DHT22;2737;52.386;9.980;2023-12-20T08:34:42;5.60;99.90
5429;DHT22;2737;52.386;9.980;2023-12-20T08:37:09;5.60;99.90
5429;DHT22;2737;52.386;9.980;2023-12-20T08:39:36;5.60;99.90
5429;DHT22;2737;52.386;9.980;2023-12-20T08:42:05;5.70;99.90
5429;DHT22;2737;52.386;9.980;2023-12-20T08:44:32;5.70;99.90
5429;DHT22;2737;52.386;9.980;2023-12-20T08:46:59;5.80;99.90
5429;DHT22;2737;52.386;9.980;2023-12-20T08:49:26;5.80;99.90
5429;DHT22;2737;52.386;9.980;2023-12-20T08:51:53;5.80;99.90
5429;DHT22;2737;52.386;9.980;2023-12-20T08:54:20;5.90;99.90
5429;DHT22;2737;52.386;9.980;2023-12-20T08:56:47;5.90;99.90
5429;DHT22;2737;52.386;9.980;2023-12-20T08:59:16;6.00;99.90
5429;DHT22;2737;52.386;9.980;2023-12-20T09:01:44;6.00;99.90
5429;DHT22;2737;52.386;9.980;2023-12-20T09:04:12;6.00;99.90
5429;DHT22;2737;52.386;9.980;2023-12-20T09:06:39;6.00;99.90
5429;DHT22;2737;52.386;9.980;2023-12-20T09:09:06;6.00;99.90
5429;DHT22;2737;52.386;9.980;2023-12-20T09:11:35;6.00;99.90
5429;DHT22;2737;52.386;9.980;2023-12-20T09:14:02;6.10;99.90
5429;DHT22;2737;52.386;9.980;2023-12-20T09:16:31;6.10;99.90
5429;DHT22;2737;52.386;9.980;2023-12-20T09:18:58;6.20;99.90
5429;DHT22;2737;52.386;9.980;2023-12-20T09:21:25;6.20;99.90
5429;DHT22;2737;52.386;9.980;2023-12-20T09:23:52;6.20;99.90
5429;DHT22;2737;52.386;9.980;2023-12-20T09:26:19;6.30;99.90
5429;DHT22;2737;52.386;9.980;2023-12-20T09:28:46;6.30;99.90
5429;DHT22;2737;52.386;9.980;2023-12-20T09:31:13;6.30;99.90
5429;DHT22;2737;52.386;9.980;2023-12-20T09:33:41;6.30;99.90
5429;DHT22;2737;52.386;9.980;2023-12-20T09:36:09;6.30;99.90
5429;DHT22;2737;52.386;9.980;2023-12-20T09:38:36;6.30;99.90
5429;DHT22;2737;52.386;9.980;2023-12-20T09:41:03;6.30;99.90
5429;DHT22;2737;52.386;9.980;2023-12-20T09:43:30;6.30;99.90
5429;DHT22;2737;52.386;9.980;2023-12-20T09:46:00;6.30;99.90
5429;DHT22;2737;52.386;9.980;2023-12-20T09:48:30;6.30;99.90
5429;DHT22;2737;52.386;9.980;2023-12-20T09:50:59;6.30;99.90
5429;DHT22;2737;52.386;9.980;2023-12-20T09:53:26;6.30;99.90
5429;DHT22;2737;52.386;9.980;2023-12-20T09:55:58;6.40;99.90
5429;DHT22;2737;52.386;9.980;2023-12-20T09:58:26;6.40;99.90
5429;DHT22;2737;52.386;9.980;2023-12-20T10:00:53;6.40;99.90
5429;DHT22;2737;52.386;9.980;2023-12-20T10:03:25;6.40;99.90
5429;DHT22;2737;52.386;9.980;2023-12-20T10:05:54;6.50;99.90
5429;DHT22;2737;52.386;9.980;2023-12-20T10:08:24;6.50;99.90
5429;DHT22;2737;52.386;9.980;2023-12-20T10:10:51;6.50;99.90
5429;DHT22;2737;52.386;9.980;2023-12-20T10:13:18;6.60;99.90
5429;DHT22;2737;52.386;9.980;2023-12-20T10:15:45;6.60;99.90
5429;DHT22;2737;52.386;9.980;2023-12-20T10:18:13;6.60;99.90
5429;DHT22;2737;52.386;9.980;2023-12-20T10:20:40;6.60;99.90
5429;DHT22;2737;52.386;9.980;2023-12-20T10:23:08;6.70;99.90
5429;DHT22;2737;52.386;9.980;2023-12-20T10:25:37;6.60;99.90
5429;DHT22;2737;52.386;9.980;2023-12-20T10:28:11;6.60;99.90
5429;DHT22;2737;52.386;9.980;2023-12-20T10:30:39;6.60;99.90
5429;DHT22;2737;52.386;9.980;2023-12-20T10:33:07;6.70;99.90
5429;DHT22;2737;52.386;9.980;2023-12-20T10:35:34;6.70;99.90
5429;DHT22;2737;52.386;9.980;2023-12-20T10:38:04;6.70;99.90
5429;DHT22;2737;52.386;9.980;2023-12-20T10:40:32;6.70;99.90
5429;DHT22;2737;52.386;9.980;2023-12-20T10:43:03;6.70;99.90
5429;DHT22;2737;52.386;9.980;2023-12-20T10:45:31;6.80;99.90
5429;DHT22;2737;52.386;9.980;2023-12-20T10:47:58;6.70;99.90
5429;DHT22;2737;52.386;9.980;2023-12-20T10:50:27;6.70;99.90
5429;DHT22;2737;52.386;9.980;2023-12-20T10:52:55;6.70;99.90
5429;DHT22;2737;52.386;9.980;2023-12-20T10:55:22;6.70;99.90
5429;DHT22;2737;52.386;9.980;2023-12-20T10:57:50;6.60;99.90
5429;DHT22;2737;52.386;9.980;2023-12-20T11:00:21;6.60;99.90
5429;DHT22;2737;52.386;9.980;2023-12-20T11:02:50;6.50;99.90
5429;DHT22;2737;52.386;9.980;2023-12-20T11:05:25;6.50;99.90
5429;DHT22;2737;52.386;9.980;2023-12-20T11:08:00;6.60;99.90
5429;DHT22;2737;52.386;9.980;2023-12-20T11:10:31;6.60;99.90
5429;DHT22;2737;52.386;9.980;2023-12-20T11:13:04;6.70;99.90
5429;DHT22;2737;52.386;9.980;2023-12-20T11:15:36;6.70;99.90
5429;DHT22;2737;52.386;9.980;2023-12-20T11:18:04;6.70;99.90
5429;DHT22;2737;52.386;9.980;2023-12-20T11:20:36;6.70;99.90
5429;DHT22;2737;52.386;9.980;2023-12-20T11:23:05;6.70;99.90
5429;DHT22;2737;52.386;9.980;2023-12-20T11:25:50;6.70;99.90
5429;DHT22;2737;52.386;9.980;2023-12-20T11:28:21;6.70;99.90
5429;DHT22;2737;52.386;9.980;2023-12-20T11:30:50;6.60;99.90
5429;DHT22;2737;52.386;9.980;2023-12-20T11:33:21;6.50;99.90
5429;DHT22;2737;52.386;9.980;2023-12-20T11:35:49;6.50;99.90
5429;DHT22;2737;52.386;9.980;2023-12-20T11:38:16;6.40;99.90
5429;DHT22;2737;52.386;9.980;2023-12-20T11:40:43;6.40;99.90
5429;DHT22;2737;52.386;9.980;2023-12-20T11:43:10;6.40;99.90
5429;DHT22;2737;52.386;9.980;2023-12-20T11:45:38;6.30;99.90
5429;DHT22;2737;52.386;9.980;2023-12-20T11:48:18;6.30;99.90
5429;DHT22;2737;52.386;9.980;2023-12-20T11:50:46;6.30;99.90
5429;DHT22;2737;52.386;9.980;2023-12-20T11:53:13;6.20;99.90
5429;DHT22;2737;52.386;9.980;2023-12-20T11:55:40;6.20;99.90
5429;DHT22;2737;52.386;9.980;2023-12-20T11:58:07;6.10;99.90
5429;DHT22;2737;52.386;9.980;2023-12-20T12:00:35;5.90;99.90
5429;DHT22;2737;52.386;9.980;2023-12-20T12:03:02;5.90;99.90
5429;DHT22;2737;52.386;9.980;2023-12-20T12:05:32;6.00;99.90
5429;DHT22;2737;52.386;9.980;2023-12-20T12:07:59;5.80;99.90
5429;DHT22;2737;52.386;9.980;2023-12-20T12:10:26;5.80;99.90
5429;DHT22;2737;52.386;9.980;2023-12-20T12:12:53;5.70;99.90
5429;DHT22;2737;52.386;9.980;2023-12-20T12:15:20;5.60;99.90
5429;DHT22;2737;52.386;9.980;2023-12-20T12:17:53;5.60;99.90
5429;DHT22;2737;52.386;9.980;2023-12-20T12:20:21;5.60;99.90
5429;DHT22;2737;52.386;9.980;2023-12-20T12:22:58;5.60;99.90
5429;DHT22;2737;52.386;9.980;2023-12-20T12:25:26;5.60;99.90
5429;DHT22;2737;52.386;9.980;2023-12-20T12:27:53;5.60;99.90
5429;DHT22;2737;52.386;9.980;2023-12-20T12:30:21;5.50;99.90
5429;DHT22;2737;52.386;9.980;2023-12-20T12:32:48;5.50;99.90
5429;DHT22;2737;52.386;9.980;2023-12-20T12:35:15;5.40;99.90
5429;DHT22;2737;52.386;9.980;2023-12-20T12:37:42;5.40;99.90
5429;DHT22;2737;52.386;9.980;2023-12-20T12:40:13;5.40;99.90
5429;DHT22;2737;52.386;9.980;2023-12-20T12:42:41;5.40;99.90
5429;DHT22;2737;52.386;9.980;2023-12-20T12:45:09;5.40;99.90
5429;DHT22;2737;52.386;9.980;2023-12-20T12:47:37;5.40;99.90
5429;DHT22;2737;52.386;9.980;2023-12-20T12:50:05;5.40;99.90
5429;DHT22;2737;52.386;9.980;2023-12-20T12:52:32;5.30;99.90
5429;DHT22;2737;52.386;9.980;2023-12-20T12:55:00;5.30;99.90
5429;DHT22;2737;52.386;9.980;2023-12-20T12:57:30;5.30;99.90
5429;DHT22;2737;52.386;9.980;2023-12-20T12:59:57;5.30;99.90
5429;DHT22;2737;52.386;9.980;2023-12-20T13:02:24;5.30;99.90
5429;DHT22;2737;52.386;9.980;2023-12-20T13:04:51;5.30;99.90
5429;DHT22;2737;52.386;9.980;2023-12-20T13:07:18;5.40;99.90
5429;DHT22;2737;52.386;9.980;2023-12-20T13:09:45;5.40;99.90
5429;DHT22;2737;52.386;9.980;2023-12-20T13:12:12;5.40;99.90
5429;DHT22;2737;52.386;9.980;2023-12-20T13:14:40;5.30;99.90
5429;DHT22;2737;52.386;9.980;2023-12-20T13:17:07;5.30;99.90
5429;DHT22;2737;52.386;9.980;2023-12-20T13:19:34;5.20;99.90
5429;DHT22;2737;52.386;9.980;2023-12-20T13:22:01;5.20;99.90
5429;DHT22;2737;52.386;9.980;2023-12-20T13:24:29;5.20;99.90
5429;DHT22;2737;52.386;9.980;2023-12-20T13:26:56;5.20;99.90
5429;DHT22;2737;52.386;9.980;2023-12-20T13:29:24;5.20;99.90
5429;DHT22;2737;52.386;9.980;2023-12-20T13:31:54;5.20;99.90
5429;DHT22;2737;52.386;9.980;2023-12-20T13:34:21;5.20;99.90
5429;DHT22;2737;52.386;9.980;2023-12-20T13:36:49;5.20;99.90
5429;DHT22;2737;52.386;9.980;2023-12-20T13:39:16;5.20;99.90
5429;DHT22;2737;52.386;9.980;2023-12-20T13:41:43;5.30;99.90
5429;DHT22;2737;52.386;9.980;2023-12-20T13:44:10;5.30;99.90
5429;DHT22;2737;52.386;9.980;2023-12-20T13:46:38;5.30;99.90
5429;DHT22;2737;52.386;9.980;2023-12-20T13:49:06;5.30;99.90
5429;DHT22;2737;52.386;9.980;2023-12-20T13:51:33;5.30;99.90
5429;DHT22;2737;52.386;9.980;2023-12-20T13:54:00;5.30;99.90
5429;DHT22;2737;52.386;9.980;2023-12-20T13:56:27;5.30;99.90
5429;DHT22;2737;52.386;9.980;2023-12-20T13:58:54;5.40;99.90
5429;DHT22;2737;52.386;9.980;2023-12-20T14:01:21;5.40;99.90
5429;DHT22;2737;52.386;9.980;2023-12-20T14:03:48;5.40;99.90
5429;DHT22;2737;52.386;9.980;2023-12-20T14:06:17;5.40;99.90
5429;DHT22;2737;52.386;9.980;2023-12-20T14:08:44;5.40;99.90
5429;DHT22;2737;52.386;9.980;2023-12-20T14:11:11;5.50;99.90
5429;DHT22;2737;52.386;9.980;2023-12-20T14:13:38;5.50;99.90
5429;DHT22;2737;52.386;9.980;2023-12-20T14:16:05;5.50;99.90
5429;DHT22;2737;52.386;9.980;2023-12-20T14:18:32;5.50;99.90
5429;DHT22;2737;52.386;9.980;2023-12-20T14:20:59;5.50;99.90
5429;DHT22;2737;52.386;9.980;2023-12-20T14:23:27;5.50;99.90
5429;DHT22;2737;52.386;9.980;2023-12-20T14:25:54;5.60;99.90
5429;DHT22;2737;52.386;9.980;2023-12-20T14:28:21;5.60;99.90
5429;DHT22;2737;52.386;9.980;2023-12-20T14:30:48;5.60;99.90
5429;DHT22;2737;52.386;9.980;2023-12-20T14:33:15;5.60;99.90
5429;DHT22;2737;52.386;9.980;2023-12-20T14:35:42;5.60;99.90
5429;DHT22;2737;52.386;9.980;2023-12-20T14:38:10;5.60;99.90
5429;DHT22;2737;52.386;9.980;2023-12-20T14:40:41;5.70;99.90
5429;DHT22;2737;52.386;9.980;2023-12-20T14:43:08;5.70;99.90
5429;DHT22;2737;52.386;9.980;2023-12-20T14:45:37;5.70;99.90
5429;DHT22;2737;52.386;9.980;2023-12-20T14:48:05;5.70;99.90
5429;DHT22;2737;52.386;9.980;2023-12-20T14:50:32;5.70;99.90
5429;DHT22;2737;52.386;9.980;2023-12-20T14:53:00;5.80;99.90
5429;DHT22;2737;52.386;9.980;2023-12-20T14:55:27;5.80;99.90
5429;DHT22;2737;52.386;9.980;2023-12-20T14:57:56;5.80;99.90
5429;DHT22;2737;52.386;9.980;2023-12-20T15:00:23;5.80;99.90
5429;DHT22;2737;52.386;9.980;2023-12-20T15:02:50;5.80;99.90
5429;DHT22;2737;52.386;9.980;2023-12-20T15:05:17;5.80;99.90
5429;DHT22;2737;52.386;9.980;2023-12-20T15:07:44;5.80;99.90
5429;DHT22;2737;52.386;9.980;2023-12-20T15:10:12;5.80;99.90
5429;DHT22;2737;52.386;9.980;2023-12-20T15:12:39;5.80;99.90
5429;DHT22;2737;52.386;9.980;2023-12-20T15:15:09;5.80;99.90
5429;DHT22;2737;52.386;9.980;2023-12-20T15:17:36;5.80;99.90
5429;DHT22;2737;52.386;9.980;2023-12-20T15:20:04;5.80;99.90
5429;DHT22;2737;52.386;9.980;2023-12-20T15:22:31;5.80;99.90
5429;DHT22;2737;52.386;9.980;2023-12-20T15:24:59;5.80;99.90
5429;DHT22;2737;52.386;9.980;2023-12-20T15:27:27;5.80;99.90
5429;DHT22;2737;52.386;9.980;2023-12-20T15:29:54;5.80;99.90
5429;DHT22;2737;52.386;9.980;2023-12-20T15:32:22;5.80;99.90
5429;DHT22;2737;52.386;9.980;2023-12-20T15:34:49;5.80;99.90
5429;DHT22;2737;52.386;9.980;2023-12-20T15:37:17;5.80;99.90
5429;DHT22;2737;52.386;9.980;2023-12-20T15:39:44;5.80;99.90
5429;DHT22;2737;52.386;9.980;2023-12-20T15:42:12;5.80;99.90
5429;DHT22;2737;52.386;9.980;2023-12-20T15:44:39;5.80;99.90
5429;DHT22;2737;52.386;9.980;2023-12-20T15:47:06;5.70;99.90
5429;DHT22;2737;52.386;9.980;2023-12-20T15:49:34;5.80;99.90
5429;DHT22;2737;52.386;9.980;2023-12-20T15:52:01;5.80;99.90
5429;DHT22;2737;52.386;9.980;2023-12-20T15:54:28;5.80;99.90
5429;DHT22;2737;52.386;9.980;2023-12-20T15:56:55;5.80;99.90
5429;DHT22;2737;52.386;9.980;2023-12-20T15:59:23;5.80;99.90
5429;DHT22;2737;52.386;9.980;2023-12-20T16:01:50;5.70;99.90
5429;DHT22;2737;52.386;9.980;2023-12-20T16:04:17;5.70;99.90
5429;DHT22;2737;52.386;9.980;2023-12-20T16:06:45;5.60;99.90
5429;DHT22;2737;52.386;9.980;2023-12-20T16:09:12;5.60;99.90
5429;DHT22;2737;52.386;9.980;2023-12-20T16:11:39;5.50;99.90
5429;DHT22;2737;52.386;9.980;2023-12-20T16:14:06;5.50;99.90
5429;DHT22;2737;52.386;9.980;2023-12-20T16:16:35;5.40;99.90
5429;DHT22;2737;52.386;9.980;2023-12-20T16:19:02;5.40;99.90